Airfield :
LOGIN :

Register | Disclaimer

   EN    FR    IT 

 










Legend :    VFR   Marginal VFR   IFR   Intensive IFR   Very Intensive IFR
Visi :
Ceiling :
>= 8 km
>= 3000ft
5 to 8 km
1000 to 3000 ft
1500m to 5 km
500 to 1000 ft
800 to 1500m
200 to 500 ft
< 800m
< 200 ft
Symbols :   Thunderstorms  Fog  Heavy snow  Heavy precipitations  Wind > 20 kt
SIGMETs :     Misc.  Thunderstorms  Icing  Turbulence  Mountain Waves  Volcanic Ashes







- Airport Elevation : 313 ft
- IATA code : LEH
- Download approach charts


LFOH - Le Havre Octeville

CURRENT METAR :
  • 200900Z AUTO 22015KT 9999 OVC009 10/09 Q1021 TEMPO 21015G25KT 3000 DZRA OVC002

EXPIRED METARs :
  • 200830Z AUTO 22014KT 9999 BKN009 OVC014 10/09 Q1021 TEMPO 21015G25KT 3000 DZRA OVC002
  • 200800Z AUTO 22013KT 9999 SCT010 OVC032 10/09 Q1021 TEMPO 21015G25KT 3000 DZRA OVC002
  • 200730Z AUTO 21014KT 9999 SCT007 SCT011 OVC035 10/09 Q1021 TEMPO 21015G25KT 3000 DZRA OVC002
  • 200700Z AUTO 21012KT 9999 FEW006 BKN041 10/09 Q1021 TEMPO 21015G25KT 3000 DZRA OVC002
  • 200630Z AUTO 20011KT 9999 FEW008 SCT023 OVC040 09/08 Q1021 TEMPO 21015G25KT 3000 DZRA OVC002

TAF AMD TAF LFOH
Valid from the 20 at 06:00 until the 21 at 06:00 UTC


200624Z 2006/2106 22010KT 9999 OVC020
TEMPO 2006/2008 OVC010
TEMPO 2008/2015 21015G25KT 3000 DZRA OVC002
BECMG 2015/2018 BKN020
BECMG 2021/2024 OVC010
TEMPO 2100/2106 OVC005
ATIS : +33 2 35 54 64 93
No reported NOTAMs for that airfield.



MET'MAP, your aeronautical weather chart ! - Copyright ORBIFLY December 2007 - Disclaimer

ORBIFLY MET'MAP TEAM :

Programming & Development : Alexandra Zaïnal
Concept & Development : Baudouin d'Aumeries
Co-Development & Prog : Marc-Olivier Méhu
Technical & hardware support : Manuel Goepfert

Contact : metmap@orbifly.com




SOURCES & CREDITS :

   NOAA